createdAt,value
2022-12-13T00:01:36.030Z,11.65
2022-12-13T00:04:06.388Z,9.13
2022-12-13T00:06:35.074Z,10.07
2022-12-13T00:09:05.289Z,12.02
2022-12-13T00:11:33.983Z,14.23
2022-12-13T00:14:02.069Z,10.07
2022-12-13T00:16:30.554Z,13.80
2022-12-13T00:19:00.298Z,13.10
2022-12-13T00:21:30.484Z,11.75
2022-12-13T00:23:58.791Z,12.45
2022-12-13T00:26:30.262Z,14.00
2022-12-13T00:29:00.526Z,13.32
2022-12-13T00:34:18.731Z,11.25
2022-12-13T00:36:48.441Z,13.15
2022-12-13T00:39:16.973Z,9.98
2022-12-13T00:41:46.634Z,10.63
2022-12-13T00:44:15.427Z,13.02
2022-12-13T00:46:43.985Z,11.10
2022-12-13T00:49:13.807Z,12.48
2022-12-13T00:51:42.242Z,10.80
2022-12-13T08:33:04.772Z,15.90
2022-12-13T08:35:35.131Z,19.23
2022-12-13T08:38:04.361Z,17.08
2022-12-13T08:40:36.507Z,18.67
2022-12-13T08:45:34.199Z,15.73
2022-12-13T08:48:03.872Z,14.30
2022-12-13T08:50:32.212Z,13.43
2022-12-13T08:53:00.275Z,15.80
2022-12-13T08:55:31.883Z,16.25
2022-12-13T08:58:01.503Z,14.90
2022-12-13T09:00:29.766Z,15.73
2022-12-13T09:03:06.304Z,15.10
2022-12-13T09:05:39.296Z,16.23
2022-12-13T09:08:24.380Z,16.80
2022-12-13T09:11:00.221Z,16.48
2022-12-13T09:13:32.824Z,14.48
2022-12-13T09:16:04.977Z,13.18
2022-12-13T09:18:43.803Z,10.35
2022-12-13T09:21:14.244Z,12.63
2022-12-13T09:23:50.663Z,11.68
2022-12-13T09:26:25.499Z,12.75
2022-12-13T09:28:53.747Z,13.85
2022-12-13T09:31:21.770Z,11.07
2022-12-13T09:33:51.301Z,12.65
2022-12-13T09:36:21.588Z,13.30
2022-12-13T09:38:49.817Z,14.75
2022-12-13T09:41:29.293Z,17.17
2022-12-13T09:44:03.167Z,14.73
2022-12-13T09:46:34.971Z,14.65
2022-12-13T09:49:23.016Z,12.65
2022-12-13T09:52:10.025Z,10.40
2022-12-13T09:54:49.049Z,14.25
2022-12-13T09:57:32.443Z,16.23
2022-12-13T10:00:03.546Z,18.17
2022-12-13T10:02:34.556Z,14.55
2022-12-13T10:05:21.626Z,12.48
2022-12-13T10:07:52.515Z,15.77
2022-12-13T10:10:20.979Z,13.80
2022-12-13T10:12:55.876Z,16.60
2022-12-13T10:15:25.526Z,15.57
2022-12-13T10:17:55.668Z,18.90
2022-12-13T10:20:28.868Z,16.30
2022-12-13T10:23:31.612Z,11.43
2022-12-13T10:25:51.690Z,11.57
2022-12-13T10:28:26.008Z,19.77
2022-12-13T10:30:53.991Z,13.70
2022-12-13T10:33:25.545Z,14.68
2022-12-13T10:36:08.228Z,13.32
2022-12-13T10:38:38.746Z,17.92
2022-12-13T10:41:28.666Z,19.65
2022-12-13T10:44:22.963Z,19.20
2022-12-13T10:47:04.610Z,17.45
2022-12-13T10:49:40.542Z,13.40
2022-12-13T10:52:31.038Z,14.05
2022-12-13T10:55:03.031Z,13.48
2022-12-13T10:57:31.053Z,15.00
2022-12-13T10:59:59.135Z,14.30
2022-12-13T11:02:35.235Z,13.57
2022-12-13T11:05:24.931Z,15.35
2022-12-13T11:07:55.408Z,13.20
2022-12-13T11:10:30.448Z,15.63
2022-12-13T11:13:03.827Z,12.95
2022-12-13T11:15:35.555Z,8.82
2022-12-13T11:18:06.292Z,14.40
2022-12-13T11:20:37.015Z,13.52
2022-12-13T11:23:12.511Z,14.10
2022-12-13T11:25:42.168Z,15.95
2022-12-13T11:28:26.749Z,14.05
2022-12-13T11:31:07.332Z,22.00
2022-12-13T11:33:47.729Z,17.17
2022-12-13T11:36:26.233Z,19.17
2022-12-13T11:39:13.480Z,15.68
2022-12-13T11:41:48.653Z,15.25
2022-12-13T11:44:21.535Z,16.52
2022-12-13T11:46:53.156Z,18.52
2022-12-13T11:49:31.701Z,19.92
2022-12-13T11:52:03.799Z,22.65
2022-12-13T11:54:48.943Z,18.52
2022-12-13T11:57:26.953Z,18.10
2022-12-13T12:00:02.925Z,16.55
2022-12-13T12:02:35.392Z,17.30
2022-12-13T12:05:09.656Z,15.65
2022-12-13T12:08:05.283Z,13.48
2022-12-13T12:10:37.446Z,14.25
2022-12-13T12:13:11.724Z,16.40
2022-12-13T12:15:46.096Z,18.98
2022-12-13T12:18:16.962Z,19.67
2022-12-13T12:20:53.703Z,19.08
2022-12-13T12:23:36.359Z,16.58
2022-12-13T12:26:14.429Z,16.08
2022-12-13T12:29:01.340Z,17.15
2022-12-13T12:31:35.649Z,19.70
2022-12-13T12:34:30.499Z,18.17
2022-12-13T12:37:11.220Z,18.65
2022-12-13T12:39:53.102Z,20.15
2022-12-13T12:42:56.470Z,21.85
2022-12-13T12:45:55.824Z,21.75
2022-12-13T12:49:01.043Z,23.30
2022-12-13T12:51:30.990Z,20.38
2022-12-13T12:54:16.216Z,18.45
2022-12-13T12:56:51.210Z,18.20
2022-12-13T12:59:27.400Z,23.55
2022-12-13T13:02:02.956Z,17.50
2022-12-13T13:04:36.065Z,22.83
2022-12-13T13:07:23.531Z,19.05
2022-12-13T13:09:55.230Z,17.60
2022-12-13T13:12:29.377Z,21.17
2022-12-13T13:15:00.836Z,17.13
2022-12-13T13:17:48.313Z,24.58
2022-12-13T13:20:24.575Z,20.63
2022-12-13T13:23:17.456Z,20.70
2022-12-13T13:28:45.542Z,22.67
2022-12-13T13:31:15.060Z,18.85
2022-12-13T13:33:48.281Z,24.38
2022-12-13T13:36:47.747Z,23.02
2022-12-13T13:39:18.044Z,19.10
2022-12-13T13:42:11.147Z,20.20
2022-12-13T13:44:55.343Z,20.42
2022-12-13T13:47:44.665Z,17.98
2022-12-13T13:50:38.330Z,18.95
2022-12-13T13:53:35.089Z,19.63
2022-12-13T13:56:24.627Z,22.90
2022-12-13T13:59:29.165Z,21.58
2022-12-13T14:02:26.781Z,21.88
2022-12-13T14:05:43.402Z,23.35
2022-12-13T14:08:21.604Z,15.00
2022-12-13T14:10:58.591Z,18.92
2022-12-13T14:14:00.674Z,17.33
2022-12-13T14:17:02.253Z,15.07
2022-12-13T14:20:08.911Z,20.52
2022-12-13T14:22:43.810Z,18.75
2022-12-13T14:25:33.818Z,19.10
2022-12-13T14:28:16.505Z,21.58
2022-12-13T14:30:47.992Z,23.08
2022-12-13T14:33:28.053Z,22.88
2022-12-13T14:35:59.088Z,22.45
2022-12-13T14:38:30.763Z,18.75
2022-12-13T14:41:00.691Z,18.60
2022-12-13T14:43:30.714Z,21.50
2022-12-13T14:46:00.550Z,21.27
2022-12-13T14:48:30.562Z,21.90
2022-12-13T14:50:58.630Z,24.17
2022-12-13T14:53:30.729Z,21.55
2022-12-13T14:56:07.570Z,19.27
2022-12-13T14:58:37.200Z,19.45
2022-12-13T15:01:05.791Z,18.52
2022-12-13T15:03:35.251Z,23.20
2022-12-13T15:06:05.069Z,20.55
2022-12-13T15:08:38.297Z,21.65
2022-12-13T15:11:10.080Z,26.83
2022-12-13T15:13:42.511Z,18.65
2022-12-13T15:16:27.434Z,17.00
2022-12-13T15:19:10.954Z,23.38
2022-12-13T15:21:39.072Z,20.20
2022-12-13T15:24:12.705Z,20.42
2022-12-13T15:26:40.856Z,19.53
2022-12-13T15:29:12.245Z,19.55
2022-12-13T15:31:41.026Z,20.10
2022-12-13T15:34:28.867Z,22.63
2022-12-13T15:36:59.240Z,27.80
2022-12-13T15:39:33.456Z,22.80
2022-12-13T15:42:01.694Z,19.73
2022-12-13T15:44:32.797Z,23.63
2022-12-13T15:47:05.377Z,22.13
2022-12-13T15:49:36.605Z,18.40
2022-12-13T15:52:06.513Z,24.13
2022-12-13T15:54:35.811Z,19.55
2022-12-13T15:57:14.483Z,19.75
2022-12-13T15:59:43.482Z,22.67
2022-12-13T16:02:18.355Z,20.73
2022-12-13T16:04:46.737Z,21.02
2022-12-13T16:07:23.876Z,22.67
2022-12-13T16:09:54.982Z,21.02
2022-12-13T16:12:29.173Z,23.95
2022-12-13T16:15:20.301Z,24.45
2022-12-13T16:18:08.081Z,21.20
2022-12-13T16:20:36.827Z,24.17
2022-12-13T16:23:08.800Z,19.83
2022-12-13T16:25:38.832Z,21.60
2022-12-13T16:28:07.294Z,18.95
2022-12-13T16:31:01.606Z,23.33
2022-12-13T16:33:29.693Z,21.33
2022-12-13T16:35:57.931Z,22.63
2022-12-13T16:38:27.381Z,21.47
2022-12-13T16:41:00.776Z,21.48
2022-12-13T16:43:40.365Z,22.83
2022-12-13T16:47:14.645Z,24.73
2022-12-13T16:49:02.138Z,26.10
2022-12-13T16:51:30.323Z,23.20
2022-12-13T16:53:58.198Z,23.83
2022-12-13T16:56:27.625Z,20.23
2022-12-13T16:58:55.925Z,20.33
2022-12-13T17:01:24.023Z,20.65
2022-12-13T17:03:52.946Z,27.27
2022-12-13T17:06:24.824Z,25.17
2022-12-13T17:08:52.865Z,29.38
2022-12-13T17:11:20.747Z,26.77
2022-12-13T17:13:50.651Z,20.95
2022-12-13T17:16:19.168Z,21.98
2022-12-13T17:18:47.095Z,25.00
2022-12-13T17:21:15.191Z,31.60
2022-12-13T17:23:43.124Z,23.08
2022-12-13T17:26:13.090Z,36.75
2022-12-13T17:28:41.024Z,21.98
2022-12-13T17:31:13.375Z,24.52
2022-12-13T17:33:42.160Z,25.30
2022-12-13T17:36:12.349Z,28.10
2022-12-13T17:38:43.882Z,24.88
2022-12-13T17:41:11.973Z,24.52
2022-12-13T17:43:40.625Z,22.23
2022-12-13T17:46:12.351Z,28.50
2022-12-13T17:48:41.451Z,27.98
2022-12-13T17:51:10.917Z,22.20
2022-12-13T17:53:40.935Z,22.42
2022-12-13T17:56:12.021Z,25.17
2022-12-13T17:58:40.353Z,24.13
2022-12-13T18:01:14.610Z,20.90
2022-12-13T18:03:43.018Z,19.77
2022-12-13T18:06:11.928Z,28.03
2022-12-13T18:08:42.333Z,22.85
2022-12-13T18:13:58.548Z,24.08
2022-12-13T18:16:35.955Z,23.67
2022-12-13T18:19:06.409Z,26.25
2022-12-13T18:21:35.201Z,25.13
2022-12-13T18:24:03.425Z,23.55
2022-12-13T18:26:31.696Z,23.27
2022-12-13T18:28:59.571Z,25.67
2022-12-13T18:31:29.085Z,20.38
2022-12-13T18:33:57.275Z,30.63
2022-12-13T18:36:26.933Z,21.00
2022-12-13T18:38:55.440Z,25.35
2022-12-13T18:41:27.987Z,22.80
2022-12-13T18:43:59.267Z,23.25
2022-12-13T18:46:30.577Z,21.67
2022-12-13T18:48:59.188Z,24.42
2022-12-13T18:51:27.813Z,24.73
2022-12-13T18:53:56.470Z,21.85
2022-12-13T18:56:25.919Z,29.45
2022-12-13T18:58:54.159Z,22.13
2022-12-13T19:01:26.918Z,24.55
2022-12-13T19:03:56.375Z,23.25
2022-12-13T19:06:26.012Z,22.15
2022-12-13T19:08:56.154Z,22.45
2022-12-13T19:11:24.794Z,27.70
2022-12-13T19:13:52.762Z,24.70
2022-12-13T19:16:23.438Z,17.57
2022-12-13T19:18:51.627Z,21.33
2022-12-13T19:21:22.102Z,17.45
2022-12-13T19:23:57.091Z,18.00
2022-12-13T19:26:27.176Z,19.73
2022-12-13T19:28:56.918Z,20.20
2022-12-13T19:31:30.485Z,21.23
2022-12-13T19:34:01.596Z,18.88
2022-12-13T19:36:31.431Z,21.52
2022-12-13T19:38:59.445Z,20.13
2022-12-13T19:41:27.672Z,25.75
2022-12-13T19:43:55.531Z,20.67
2022-12-13T19:46:23.757Z,21.15
2022-12-13T19:48:51.793Z,20.40
2022-12-13T19:51:20.195Z,19.27
2022-12-13T19:53:49.939Z,19.65
2022-12-13T19:56:19.931Z,17.45
2022-12-13T19:58:49.451Z,16.95
2022-12-13T20:01:19.112Z,19.10
2022-12-13T20:03:48.149Z,15.20
2022-12-13T20:06:17.913Z,18.15
2022-12-13T20:08:46.248Z,17.58
2022-12-13T20:11:19.483Z,17.40
2022-12-13T20:13:48.111Z,16.60
2022-12-13T20:16:18.503Z,16.40
2022-12-13T20:18:46.943Z,16.88
2022-12-13T20:21:16.380Z,15.32
2022-12-13T20:26:36.286Z,18.75
2022-12-13T20:27:23.287Z,19.90
2022-12-13T20:29:05.858Z,13.52
2022-12-13T20:31:35.926Z,15.23
2022-12-13T20:34:06.642Z,16.02
2022-12-13T20:36:34.962Z,14.80
2022-12-13T20:39:04.853Z,16.73
2022-12-13T20:41:36.361Z,12.35
2022-12-13T20:44:06.681Z,11.80
2022-12-13T20:46:35.196Z,19.25
2022-12-13T20:49:05.415Z,18.45
2022-12-13T20:51:34.921Z,15.73
2022-12-13T20:54:02.887Z,15.10
2022-12-13T20:56:34.470Z,17.83
2022-12-13T20:59:04.559Z,14.90
2022-12-13T21:01:35.392Z,16.15
2022-12-13T21:04:05.914Z,16.20
2022-12-13T21:06:36.025Z,15.73
2022-12-13T21:09:04.683Z,13.73
2022-12-13T21:11:34.987Z,13.73
2022-12-13T21:14:10.125Z,15.95
2022-12-13T21:16:42.027Z,14.45
2022-12-13T21:19:14.791Z,17.30
2022-12-13T21:21:42.844Z,16.95
2022-12-13T21:24:13.869Z,16.05
2022-12-13T21:26:41.985Z,15.40
2022-12-13T21:29:12.889Z,18.10
2022-12-13T21:31:43.095Z,14.95
2022-12-13T21:34:12.948Z,17.70
2022-12-13T21:36:43.198Z,16.30
2022-12-13T21:39:13.999Z,17.70
2022-12-13T21:41:43.052Z,13.10
2022-12-13T21:44:14.317Z,19.60
2022-12-13T21:49:31.282Z,15.18
2022-12-13T21:51:59.196Z,17.35
2022-12-13T21:54:27.378Z,14.93
2022-12-13T21:57:13.102Z,15.00
2022-12-13T21:59:42.362Z,17.58
2022-12-13T22:02:14.957Z,15.98
2022-12-13T22:04:44.981Z,13.35
2022-12-13T22:07:14.810Z,18.13
2022-12-13T22:09:43.005Z,17.50
2022-12-13T22:12:17.726Z,18.70
2022-12-13T22:14:48.301Z,18.05
2022-12-13T22:17:16.600Z,17.50
2022-12-13T22:19:44.707Z,18.65
2022-12-13T22:22:17.165Z,16.13
2022-12-13T22:24:49.887Z,17.10
2022-12-13T22:27:23.595Z,19.95
2022-12-13T22:29:54.194Z,16.10
2022-12-13T22:32:22.417Z,17.25
2022-12-13T22:34:50.627Z,17.60
2022-12-13T22:37:18.618Z,15.30
2022-12-13T22:39:46.520Z,18.60
2022-12-13T22:42:14.552Z,15.27
2022-12-13T22:44:42.509Z,16.83
2022-12-13T22:47:11.838Z,14.75
2022-12-13T22:49:40.177Z,20.58
2022-12-13T22:52:08.372Z,16.35
2022-12-13T22:54:36.775Z,15.75
2022-12-13T22:57:05.144Z,15.73
2022-12-13T22:59:33.814Z,16.10
2022-12-13T23:02:03.338Z,16.25
2022-12-13T23:04:32.892Z,15.23
2022-12-13T23:07:01.226Z,18.67
2022-12-13T23:09:29.269Z,20.13
2022-12-13T23:12:14.590Z,19.80
2022-12-13T23:14:42.837Z,16.70
2022-12-13T23:17:11.000Z,16.80
2022-12-13T23:19:50.784Z,19.02
2022-12-13T23:22:21.394Z,18.17
2022-12-13T23:24:49.949Z,20.60
2022-12-13T23:27:18.418Z,20.77
2022-12-13T23:29:46.385Z,17.03
2022-12-13T23:32:14.455Z,19.70
2022-12-13T23:34:43.719Z,18.70
2022-12-13T23:37:11.852Z,17.75
2022-12-13T23:39:39.745Z,19.88
2022-12-13T23:42:07.980Z,23.58
2022-12-13T23:44:36.120Z,17.52
2022-12-13T23:47:04.264Z,14.73
2022-12-13T23:49:32.257Z,22.27
2022-12-13T23:52:01.673Z,22.63
2022-12-13T23:54:29.728Z,19.77
2022-12-13T23:56:57.807Z,19.75
2022-12-13T23:59:26.047Z,20.02
